sensor_id;sensor_type;location;lat;lon;timestamp;temperature;humidity
9271;DHT22;4673;53.458;9.940;2023-05-07T00:01:39;8.70;93.20
9271;DHT22;4673;53.458;9.940;2023-05-07T00:04:05;8.70;93.30
9271;DHT22;4673;53.458;9.940;2023-05-07T00:06:32;8.70;93.30
9271;DHT22;4673;53.458;9.940;2023-05-07T00:08:58;8.70;93.30
9271;DHT22;4673;53.458;9.940;2023-05-07T00:11:23;8.70;93.40
9271;DHT22;4673;53.458;9.940;2023-05-07T00:13:49;8.70;93.40
9271;DHT22;4673;53.458;9.940;2023-05-07T00:16:15;8.70;93.60
9271;DHT22;4673;53.458;9.940;2023-05-07T00:18:42;8.70;93.70
9271;DHT22;4673;53.458;9.940;2023-05-07T00:21:07;8.70;93.80
9271;DHT22;4673;53.458;9.940;2023-05-07T00:23:33;8.70;93.30
9271;DHT22;4673;53.458;9.940;2023-05-07T00:25:58;8.70;93.10
9271;DHT22;4673;53.458;9.940;2023-05-07T00:28:24;8.60;93.20
9271;DHT22;4673;53.458;9.940;2023-05-07T00:30:50;8.60;93.20
9271;DHT22;4673;53.458;9.940;2023-05-07T00:33:15;8.60;93.10
9271;DHT22;4673;53.458;9.940;2023-05-07T00:35:43;8.60;93.00
9271;DHT22;4673;53.458;9.940;2023-05-07T00:38:08;8.60;93.00
9271;DHT22;4673;53.458;9.940;2023-05-07T00:40:34;8.60;92.90
9271;DHT22;4673;53.458;9.940;2023-05-07T00:43:00;8.70;92.90
9271;DHT22;4673;53.458;9.940;2023-05-07T00:45:29;8.70;92.70
9271;DHT22;4673;53.458;9.940;2023-05-07T00:47:55;8.60;92.70
9271;DHT22;4673;53.458;9.940;2023-05-07T00:50:22;8.60;92.70
9271;DHT22;4673;53.458;9.940;2023-05-07T00:52:48;8.60;92.70
9271;DHT22;4673;53.458;9.940;2023-05-07T00:55:14;8.70;92.90
9271;DHT22;4673;53.458;9.940;2023-05-07T00:57:40;8.60;92.80
9271;DHT22;4673;53.458;9.940;2023-05-07T01:00:08;8.60;92.20
9271;DHT22;4673;53.458;9.940;2023-05-07T01:02:38;8.60;92.10
9271;DHT22;4673;53.458;9.940;2023-05-07T01:05:05;8.60;91.80
9271;DHT22;4673;53.458;9.940;2023-05-07T01:07:33;8.50;91.60
9271;DHT22;4673;53.458;9.940;2023-05-07T01:10:00;8.60;91.40
9271;DHT22;4673;53.458;9.940;2023-05-07T01:12:26;8.60;91.30
9271;DHT22;4673;53.458;9.940;2023-05-07T01:14:53;8.60;91.40
9271;DHT22;4673;53.458;9.940;2023-05-07T01:17:19;8.60;91.50
9271;DHT22;4673;53.458;9.940;2023-05-07T01:19:45;8.60;91.50
9271;DHT22;4673;53.458;9.940;2023-05-07T01:22:11;8.60;91.50
9271;DHT22;4673;53.458;9.940;2023-05-07T01:24:40;8.50;91.70
9271;DHT22;4673;53.458;9.940;2023-05-07T01:27:06;8.50;91.40
9271;DHT22;4673;53.458;9.940;2023-05-07T01:29:32;8.50;91.10
9271;DHT22;4673;53.458;9.940;2023-05-07T01:32:00;8.50;91.20
9271;DHT22;4673;53.458;9.940;2023-05-07T01:34:28;8.50;91.20
9271;DHT22;4673;53.458;9.940;2023-05-07T01:36:54;8.50;91.20
9271;DHT22;4673;53.458;9.940;2023-05-07T01:39:23;8.60;91.00
9271;DHT22;4673;53.458;9.940;2023-05-07T01:41:49;8.60;91.00
9271;DHT22;4673;53.458;9.940;2023-05-07T01:44:16;8.60;91.00
9271;DHT22;4673;53.458;9.940;2023-05-07T01:46:43;8.70;91.10
9271;DHT22;4673;53.458;9.940;2023-05-07T01:49:10;8.60;91.00
9271;DHT22;4673;53.458;9.940;2023-05-07T01:51:35;8.60;90.90
9271;DHT22;4673;53.458;9.940;2023-05-07T01:54:01;8.60;90.90
9271;DHT22;4673;53.458;9.940;2023-05-07T01:56:27;8.60;90.90
9271;DHT22;4673;53.458;9.940;2023-05-07T01:58:52;8.60;91.00
9271;DHT22;4673;53.458;9.940;2023-05-07T02:01:18;8.60;91.00
9271;DHT22;4673;53.458;9.940;2023-05-07T02:03:44;8.60;90.90
9271;DHT22;4673;53.458;9.940;2023-05-07T02:06:10;8.60;90.50
9271;DHT22;4673;53.458;9.940;2023-05-07T02:08:35;8.60;90.50
9271;DHT22;4673;53.458;9.940;2023-05-07T02:11:01;8.60;90.50
9271;DHT22;4673;53.458;9.940;2023-05-07T02:13:33;8.60;90.00
9271;DHT22;4673;53.458;9.940;2023-05-07T02:15:59;8.60;89.90
9271;DHT22;4673;53.458;9.940;2023-05-07T02:20:52;8.60;89.70
9271;DHT22;4673;53.458;9.940;2023-05-07T02:23:18;8.60;89.40
9271;DHT22;4673;53.458;9.940;2023-05-07T02:25:43;8.60;89.30
9271;DHT22;4673;53.458;9.940;2023-05-07T02:28:09;8.60;89.30
9271;DHT22;4673;53.458;9.940;2023-05-07T02:30:36;8.60;89.20
9271;DHT22;4673;53.458;9.940;2023-05-07T02:33:02;8.60;89.20
9271;DHT22;4673;53.458;9.940;2023-05-07T02:35:28;8.60;89.10
9271;DHT22;4673;53.458;9.940;2023-05-07T02:37:54;8.60;89.10
9271;DHT22;4673;53.458;9.940;2023-05-07T02:40:19;8.60;89.10
9271;DHT22;4673;53.458;9.940;2023-05-07T02:42:45;8.60;89.00
9271;DHT22;4673;53.458;9.940;2023-05-07T02:45:11;8.70;88.80
9271;DHT22;4673;53.458;9.940;2023-05-07T02:47:36;8.60;88.50
9271;DHT22;4673;53.458;9.940;2023-05-07T02:50:02;8.60;88.50
9271;DHT22;4673;53.458;9.940;2023-05-07T02:52:29;8.60;88.40
9271;DHT22;4673;53.458;9.940;2023-05-07T02:54:54;8.50;88.60
9271;DHT22;4673;53.458;9.940;2023-05-07T02:57:20;8.50;88.80
9271;DHT22;4673;53.458;9.940;2023-05-07T02:59:46;8.60;88.80
9271;DHT22;4673;53.458;9.940;2023-05-07T03:02:11;8.50;88.80
9271;DHT22;4673;53.458;9.940;2023-05-07T03:04:38;8.60;88.80
9271;DHT22;4673;53.458;9.940;2023-05-07T03:07:04;8.70;88.90
9271;DHT22;4673;53.458;9.940;2023-05-07T03:09:29;8.60;88.90
9271;DHT22;4673;53.458;9.940;2023-05-07T03:11:56;8.60;89.00
9271;DHT22;4673;53.458;9.940;2023-05-07T03:14:22;8.60;89.00
9271;DHT22;4673;53.458;9.940;2023-05-07T03:16:49;8.60;89.20
9271;DHT22;4673;53.458;9.940;2023-05-07T03:19:15;8.60;89.30
9271;DHT22;4673;53.458;9.940;2023-05-07T03:21:40;8.60;89.20
9271;DHT22;4673;53.458;9.940;2023-05-07T03:24:06;8.60;89.40
9271;DHT22;4673;53.458;9.940;2023-05-07T03:26:32;8.60;89.60
9271;DHT22;4673;53.458;9.940;2023-05-07T03:28:57;8.50;89.60
9271;DHT22;4673;53.458;9.940;2023-05-07T03:31:23;8.60;89.50
9271;DHT22;4673;53.458;9.940;2023-05-07T03:33:56;8.60;89.50
9271;DHT22;4673;53.458;9.940;2023-05-07T03:36:23;8.60;89.70
9271;DHT22;4673;53.458;9.940;2023-05-07T03:38:49;8.50;89.70
9271;DHT22;4673;53.458;9.940;2023-05-07T03:41:15;8.50;89.70
9271;DHT22;4673;53.458;9.940;2023-05-07T03:43:41;8.50;89.70
9271;DHT22;4673;53.458;9.940;2023-05-07T03:46:07;8.50;90.10
9271;DHT22;4673;53.458;9.940;2023-05-07T03:48:33;8.50;90.10
9271;DHT22;4673;53.458;9.940;2023-05-07T03:50:59;8.50;90.10
9271;DHT22;4673;53.458;9.940;2023-05-07T03:53:25;8.50;90.00
9271;DHT22;4673;53.458;9.940;2023-05-07T03:55:50;8.50;89.70
9271;DHT22;4673;53.458;9.940;2023-05-07T03:58:16;8.50;89.40
9271;DHT22;4673;53.458;9.940;2023-05-07T04:00:42;8.50;89.30
9271;DHT22;4673;53.458;9.940;2023-05-07T04:03:08;8.50;89.30
9271;DHT22;4673;53.458;9.940;2023-05-07T04:05:33;8.70;89.40
9271;DHT22;4673;53.458;9.940;2023-05-07T04:08:00;8.50;88.60
9271;DHT22;4673;53.458;9.940;2023-05-07T04:10:26;8.50;88.60
9271;DHT22;4673;53.458;9.940;2023-05-07T04:12:51;8.60;88.60
9271;DHT22;4673;53.458;9.940;2023-05-07T04:15:17;8.60;88.50
9271;DHT22;4673;53.458;9.940;2023-05-07T04:17:43;8.60;88.30
9271;DHT22;4673;53.458;9.940;2023-05-07T04:20:16;8.60;88.30
9271;DHT22;4673;53.458;9.940;2023-05-07T04:22:42;8.90;88.30
9271;DHT22;4673;53.458;9.940;2023-05-07T04:25:08;8.60;88.20
9271;DHT22;4673;53.458;9.940;2023-05-07T04:27:36;8.70;88.10
9271;DHT22;4673;53.458;9.940;2023-05-07T04:30:03;8.70;87.90
9271;DHT22;4673;53.458;9.940;2023-05-07T04:32:30;8.70;87.60
9271;DHT22;4673;53.458;9.940;2023-05-07T04:34:56;8.70;87.50
9271;DHT22;4673;53.458;9.940;2023-05-07T04:37:22;8.80;87.70
9271;DHT22;4673;53.458;9.940;2023-05-07T04:39:48;8.80;87.50
9271;DHT22;4673;53.458;9.940;2023-05-07T04:42:17;8.80;87.20
9271;DHT22;4673;53.458;9.940;2023-05-07T04:44:44;8.80;87.10
9271;DHT22;4673;53.458;9.940;2023-05-07T04:47:10;8.80;86.60
9271;DHT22;4673;53.458;9.940;2023-05-07T04:49:37;8.80;86.20
9271;DHT22;4673;53.458;9.940;2023-05-07T04:52:03;8.80;86.50
9271;DHT22;4673;53.458;9.940;2023-05-07T04:54:29;8.90;86.50
9271;DHT22;4673;53.458;9.940;2023-05-07T04:56:55;8.90;86.40
9271;DHT22;4673;53.458;9.940;2023-05-07T04:59:21;8.90;86.30
9271;DHT22;4673;53.458;9.940;2023-05-07T05:01:46;8.90;86.10
9271;DHT22;4673;53.458;9.940;2023-05-07T05:04:12;9.10;86.10
9271;DHT22;4673;53.458;9.940;2023-05-07T05:06:39;9.00;86.20
9271;DHT22;4673;53.458;9.940;2023-05-07T05:09:04;9.00;86.00
9271;DHT22;4673;53.458;9.940;2023-05-07T05:11:31;9.00;86.20
9271;DHT22;4673;53.458;9.940;2023-05-07T05:13:56;9.00;86.00
9271;DHT22;4673;53.458;9.940;2023-05-07T05:16:22;9.10;85.90
9271;DHT22;4673;53.458;9.940;2023-05-07T05:18:48;9.00;85.60
9271;DHT22;4673;53.458;9.940;2023-05-07T05:21:14;9.00;85.60
9271;DHT22;4673;53.458;9.940;2023-05-07T05:23:39;9.00;85.80
9271;DHT22;4673;53.458;9.940;2023-05-07T05:26:05;9.10;86.10
9271;DHT22;4673;53.458;9.940;2023-05-07T05:28:31;9.00;85.90
9271;DHT22;4673;53.458;9.940;2023-05-07T05:30:56;9.00;85.80
9271;DHT22;4673;53.458;9.940;2023-05-07T05:33:22;9.10;86.10
9271;DHT22;4673;53.458;9.940;2023-05-07T05:35:47;9.00;85.70
9271;DHT22;4673;53.458;9.940;2023-05-07T05:38:13;9.00;85.80
9271;DHT22;4673;53.458;9.940;2023-05-07T05:40:39;9.00;85.90
9271;DHT22;4673;53.458;9.940;2023-05-07T05:43:05;9.20;86.20
9271;DHT22;4673;53.458;9.940;2023-05-07T05:45:31;9.00;86.10
9271;DHT22;4673;53.458;9.940;2023-05-07T05:47:57;9.00;86.40
9271;DHT22;4673;53.458;9.940;2023-05-07T05:50:23;9.00;86.40
9271;DHT22;4673;53.458;9.940;2023-05-07T05:52:48;9.00;86.40
9271;DHT22;4673;53.458;9.940;2023-05-07T05:55:14;9.00;86.50
9271;DHT22;4673;53.458;9.940;2023-05-07T05:57:40;9.10;86.40
9271;DHT22;4673;53.458;9.940;2023-05-07T06:00:06;9.30;86.20
9271;DHT22;4673;53.458;9.940;2023-05-07T06:02:33;9.10;85.80
9271;DHT22;4673;53.458;9.940;2023-05-07T06:04:58;9.20;86.00
9271;DHT22;4673;53.458;9.940;2023-05-07T06:07:24;9.30;85.90
9271;DHT22;4673;53.458;9.940;2023-05-07T06:09:50;9.40;85.50
9271;DHT22;4673;53.458;9.940;2023-05-07T06:12:16;9.30;85.40
9271;DHT22;4673;53.458;9.940;2023-05-07T06:14:43;9.40;85.40
9271;DHT22;4673;53.458;9.940;2023-05-07T06:17:09;9.50;85.10
9271;DHT22;4673;53.458;9.940;2023-05-07T06:19:35;9.50;85.00
9271;DHT22;4673;53.458;9.940;2023-05-07T06:22:00;9.60;84.60
9271;DHT22;4673;53.458;9.940;2023-05-07T06:24:27;9.50;84.10
9271;DHT22;4673;53.458;9.940;2023-05-07T06:26:53;9.60;84.20
9271;DHT22;4673;53.458;9.940;2023-05-07T06:29:18;9.60;83.90
9271;DHT22;4673;53.458;9.940;2023-05-07T06:31:44;9.60;83.40
9271;DHT22;4673;53.458;9.940;2023-05-07T06:34:10;9.70;83.30
9271;DHT22;4673;53.458;9.940;2023-05-07T06:36:39;9.70;83.00
9271;DHT22;4673;53.458;9.940;2023-05-07T06:39:06;9.80;82.50
9271;DHT22;4673;53.458;9.940;2023-05-07T06:41:31;9.70;82.40
9271;DHT22;4673;53.458;9.940;2023-05-07T06:43:57;9.60;82.00
9271;DHT22;4673;53.458;9.940;2023-05-07T06:46:23;9.80;81.90
9271;DHT22;4673;53.458;9.940;2023-05-07T06:48:48;9.70;81.90
9271;DHT22;4673;53.458;9.940;2023-05-07T06:51:14;9.80;81.90
9271;DHT22;4673;53.458;9.940;2023-05-07T06:53:39;9.90;81.70
9271;DHT22;4673;53.458;9.940;2023-05-07T06:56:06;9.90;81.30
9271;DHT22;4673;53.458;9.940;2023-05-07T06:58:31;9.90;80.90
9271;DHT22;4673;53.458;9.940;2023-05-07T07:00:57;10.00;81.10
9271;DHT22;4673;53.458;9.940;2023-05-07T07:03:23;9.90;81.00
9271;DHT22;4673;53.458;9.940;2023-05-07T07:05:52;10.00;80.90
9271;DHT22;4673;53.458;9.940;2023-05-07T07:08:18;10.10;81.20
9271;DHT22;4673;53.458;9.940;2023-05-07T07:10:46;10.10;81.00
9271;DHT22;4673;53.458;9.940;2023-05-07T07:13:12;10.20;80.70
9271;DHT22;4673;53.458;9.940;2023-05-07T07:15:38;10.30;80.80
9271;DHT22;4673;53.458;9.940;2023-05-07T07:18:04;10.30;79.80
9271;DHT22;4673;53.458;9.940;2023-05-07T07:20:29;10.30;79.60
9271;DHT22;4673;53.458;9.940;2023-05-07T07:22:55;10.30;79.80
9271;DHT22;4673;53.458;9.940;2023-05-07T07:25:21;10.50;79.80
9271;DHT22;4673;53.458;9.940;2023-05-07T07:27:46;10.50;79.40
9271;DHT22;4673;53.458;9.940;2023-05-07T07:30:12;10.40;78.90
9271;DHT22;4673;53.458;9.940;2023-05-07T07:32:38;10.50;78.90
9271;DHT22;4673;53.458;9.940;2023-05-07T07:35:03;10.40;78.80
9271;DHT22;4673;53.458;9.940;2023-05-07T07:37:30;10.60;78.70
9271;DHT22;4673;53.458;9.940;2023-05-07T07:39:55;10.60;78.90
9271;DHT22;4673;53.458;9.940;2023-05-07T07:42:21;10.80;78.50
9271;DHT22;4673;53.458;9.940;2023-05-07T07:44:47;10.80;76.90
9271;DHT22;4673;53.458;9.940;2023-05-07T07:47:12;10.80;76.90
9271;DHT22;4673;53.458;9.940;2023-05-07T07:49:38;10.80;76.40
9271;DHT22;4673;53.458;9.940;2023-05-07T07:52:04;10.80;76.30
9271;DHT22;4673;53.458;9.940;2023-05-07T07:54:29;10.90;75.80
9271;DHT22;4673;53.458;9.940;2023-05-07T07:56:55;10.80;75.90
9271;DHT22;4673;53.458;9.940;2023-05-07T07:59:21;10.90;76.00
9271;DHT22;4673;53.458;9.940;2023-05-07T08:01:47;11.00;75.10
9271;DHT22;4673;53.458;9.940;2023-05-07T08:04:15;11.10;75.00
9271;DHT22;4673;53.458;9.940;2023-05-07T08:06:41;11.30;74.90
9271;DHT22;4673;53.458;9.940;2023-05-07T08:09:07;11.40;74.20
9271;DHT22;4673;53.458;9.940;2023-05-07T08:11:33;11.50;73.10
9271;DHT22;4673;53.458;9.940;2023-05-07T08:13:59;11.60;72.70
9271;DHT22;4673;53.458;9.940;2023-05-07T08:16:25;11.60;72.00
9271;DHT22;4673;53.458;9.940;2023-05-07T08:18:57;11.60;72.40
9271;DHT22;4673;53.458;9.940;2023-05-07T08:21:25;11.60;72.70
9271;DHT22;4673;53.458;9.940;2023-05-07T08:23:51;11.70;72.30
9271;DHT22;4673;53.458;9.940;2023-05-07T08:26:17;11.80;72.50
9271;DHT22;4673;53.458;9.940;2023-05-07T08:28:42;11.70;71.80
9271;DHT22;4673;53.458;9.940;2023-05-07T08:31:08;11.80;71.80
9271;DHT22;4673;53.458;9.940;2023-05-07T08:33:34;11.80;72.10
9271;DHT22;4673;53.458;9.940;2023-05-07T08:36:00;11.70;72.00
9271;DHT22;4673;53.458;9.940;2023-05-07T08:38:25;11.80;71.30
9271;DHT22;4673;53.458;9.940;2023-05-07T08:40:51;11.80;70.70
9271;DHT22;4673;53.458;9.940;2023-05-07T08:43:18;11.80;70.10
9271;DHT22;4673;53.458;9.940;2023-05-07T08:45:45;11.90;70.10
9271;DHT22;4673;53.458;9.940;2023-05-07T08:48:16;11.90;70.20
9271;DHT22;4673;53.458;9.940;2023-05-07T08:50:44;12.00;69.50
9271;DHT22;4673;53.458;9.940;2023-05-07T08:53:13;11.90;69.90
9271;DHT22;4673;53.458;9.940;2023-05-07T08:55:40;11.90;70.40
9271;DHT22;4673;53.458;9.940;2023-05-07T08:58:10;12.00;70.50
9271;DHT22;4673;53.458;9.940;2023-05-07T09:00:36;12.10;69.80
9271;DHT22;4673;53.458;9.940;2023-05-07T09:03:05;12.20;70.00
9271;DHT22;4673;53.458;9.940;2023-05-07T09:05:38;12.30;69.30
9271;DHT22;4673;53.458;9.940;2023-05-07T09:08:07;12.40;68.00
9271;DHT22;4673;53.458;9.940;2023-05-07T09:10:39;12.40;67.90
9271;DHT22;4673;53.458;9.940;2023-05-07T09:13:12;12.30;68.00
9271;DHT22;4673;53.458;9.940;2023-05-07T09:15:40;12.30;68.00
9271;DHT22;4673;53.458;9.940;2023-05-07T09:18:07;12.10;68.20
9271;DHT22;4673;53.458;9.940;2023-05-07T09:20:35;12.20;68.80
9271;DHT22;4673;53.458;9.940;2023-05-07T09:23:07;12.20;69.00
9271;DHT22;4673;53.458;9.940;2023-05-07T09:25:34;12.30;68.30
9271;DHT22;4673;53.458;9.940;2023-05-07T09:28:01;12.20;68.20
9271;DHT22;4673;53.458;9.940;2023-05-07T09:30:31;12.30;68.80
9271;DHT22;4673;53.458;9.940;2023-05-07T09:33:02;12.30;68.90
9271;DHT22;4673;53.458;9.940;2023-05-07T09:35:28;12.30;68.90
9271;DHT22;4673;53.458;9.940;2023-05-07T09:37:55;12.40;68.60
9271;DHT22;4673;53.458;9.940;2023-05-07T09:40:23;12.50;68.40
9271;DHT22;4673;53.458;9.940;2023-05-07T09:42:49;12.50;67.90
9271;DHT22;4673;53.458;9.940;2023-05-07T09:45:16;12.40;67.90
9271;DHT22;4673;53.458;9.940;2023-05-07T09:47:43;12.40;67.70
9271;DHT22;4673;53.458;9.940;2023-05-07T09:50:15;12.40;67.40
9271;DHT22;4673;53.458;9.940;2023-05-07T09:52:42;12.50;67.90
9271;DHT22;4673;53.458;9.940;2023-05-07T09:55:09;12.50;67.70
9271;DHT22;4673;53.458;9.940;2023-05-07T09:57:36;12.70;67.60
9271;DHT22;4673;53.458;9.940;2023-05-07T10:00:03;12.70;67.30
9271;DHT22;4673;53.458;9.940;2023-05-07T10:02:35;12.90;66.60
9271;DHT22;4673;53.458;9.940;2023-05-07T10:05:02;13.20;66.00
9271;DHT22;4673;53.458;9.940;2023-05-07T10:07:29;12.90;65.60
9271;DHT22;4673;53.458;9.940;2023-05-07T10:09:55;12.90;65.30
9271;DHT22;4673;53.458;9.940;2023-05-07T10:12:21;12.80;65.80
9271;DHT22;4673;53.458;9.940;2023-05-07T10:14:47;12.90;65.80
9271;DHT22;4673;53.458;9.940;2023-05-07T10:17:16;13.10;65.20
9271;DHT22;4673;53.458;9.940;2023-05-07T10:19:44;13.20;64.40
9271;DHT22;4673;53.458;9.940;2023-05-07T10:22:11;13.20;63.80
9271;DHT22;4673;53.458;9.940;2023-05-07T10:24:37;13.20;63.70
9271;DHT22;4673;53.458;9.940;2023-05-07T10:27:10;13.30;63.20
9271;DHT22;4673;53.458;9.940;2023-05-07T10:32:49;13.40;62.80
9271;DHT22;4673;53.458;9.940;2023-05-07T10:35:21;13.50;62.40
9271;DHT22;4673;53.458;9.940;2023-05-07T10:37:48;13.70;62.60
9271;DHT22;4673;53.458;9.940;2023-05-07T10:40:14;14.00;61.70
9271;DHT22;4673;53.458;9.940;2023-05-07T10:42:54;14.30;60.40
9271;DHT22;4673;53.458;9.940;2023-05-07T10:45:20;14.60;59.40
9271;DHT22;4673;53.458;9.940;2023-05-07T10:48:05;14.60;57.00
9271;DHT22;4673;53.458;9.940;2023-05-07T10:50:31;14.40;57.20
9271;DHT22;4673;53.458;9.940;2023-05-07T10:53:21;14.30;57.40
9271;DHT22;4673;53.458;9.940;2023-05-07T10:55:49;14.20;58.90
9271;DHT22;4673;53.458;9.940;2023-05-07T10:58:26;14.40;57.80
9271;DHT22;4673;53.458;9.940;2023-05-07T11:01:00;14.20;57.30
9271;DHT22;4673;53.458;9.940;2023-05-07T11:03:27;14.20;58.70
9271;DHT22;4673;53.458;9.940;2023-05-07T11:06:09;14.30;57.60
9271;DHT22;4673;53.458;9.940;2023-05-07T11:08:56;14.30;57.90
9271;DHT22;4673;53.458;9.940;2023-05-07T11:11:57;14.40;56.70
9271;DHT22;4673;53.458;9.940;2023-05-07T11:17:08;14.50;56.50
9271;DHT22;4673;53.458;9.940;2023-05-07T11:19:54;14.60;55.80
9271;DHT22;4673;53.458;9.940;2023-05-07T11:22:47;14.70;56.10
9271;DHT22;4673;53.458;9.940;2023-05-07T11:25:19;14.70;55.70
9271;DHT22;4673;53.458;9.940;2023-05-07T11:27:45;14.80;55.70
9271;DHT22;4673;53.458;9.940;2023-05-07T11:30:17;14.80;55.90
9271;DHT22;4673;53.458;9.940;2023-05-07T11:32:47;14.90;55.10
9271;DHT22;4673;53.458;9.940;2023-05-07T11:35:15;14.90;55.50
9271;DHT22;4673;53.458;9.940;2023-05-07T11:37:41;15.00;55.20
9271;DHT22;4673;53.458;9.940;2023-05-07T11:40:08;15.00;54.80
9271;DHT22;4673;53.458;9.940;2023-05-07T11:42:37;15.10;54.40
9271;DHT22;4673;53.458;9.940;2023-05-07T11:45:04;15.00;54.00
9271;DHT22;4673;53.458;9.940;2023-05-07T11:47:31;14.90;54.40
9271;DHT22;4673;53.458;9.940;2023-05-07T11:50:05;14.70;54.90
9271;DHT22;4673;53.458;9.940;2023-05-07T11:52:31;14.60;54.50
9271;DHT22;4673;53.458;9.940;2023-05-07T11:54:59;14.50;55.70
9271;DHT22;4673;53.458;9.940;2023-05-07T11:57:26;14.40;56.40
9271;DHT22;4673;53.458;9.940;2023-05-07T11:59:56;14.50;56.10
9271;DHT22;4673;53.458;9.940;2023-05-07T12:02:22;14.80;56.30
9271;DHT22;4673;53.458;9.940;2023-05-07T12:04:48;15.00;55.20
9271;DHT22;4673;53.458;9.940;2023-05-07T12:07:14;15.00;55.40
9271;DHT22;4673;53.458;9.940;2023-05-07T12:09:41;15.10;55.00
9271;DHT22;4673;53.458;9.940;2023-05-07T12:12:07;15.10;54.00
9271;DHT22;4673;53.458;9.940;2023-05-07T12:14:40;15.10;53.90
9271;DHT22;4673;53.458;9.940;2023-05-07T12:17:07;15.10;53.60
9271;DHT22;4673;53.458;9.940;2023-05-07T12:19:34;15.10;54.30
9271;DHT22;4673;53.458;9.940;2023-05-07T12:22:02;15.20;53.30
9271;DHT22;4673;53.458;9.940;2023-05-07T12:24:28;15.20;53.10
9271;DHT22;4673;53.458;9.940;2023-05-07T12:26:53;15.30;53.00
9271;DHT22;4673;53.458;9.940;2023-05-07T12:29:23;15.50;52.30
9271;DHT22;4673;53.458;9.940;2023-05-07T12:31:50;15.60;51.70
9271;DHT22;4673;53.458;9.940;2023-05-07T12:34:16;15.60;51.10
9271;DHT22;4673;53.458;9.940;2023-05-07T12:36:41;15.70;51.50
9271;DHT22;4673;53.458;9.940;2023-05-07T12:39:10;15.80;51.40
9271;DHT22;4673;53.458;9.940;2023-05-07T12:41:52;16.00;50.50
9271;DHT22;4673;53.458;9.940;2023-05-07T12:44:21;16.00;49.90
9271;DHT22;4673;53.458;9.940;2023-05-07T12:46:47;16.10;50.00
9271;DHT22;4673;53.458;9.940;2023-05-07T12:49:13;16.10;49.50
9271;DHT22;4673;53.458;9.940;2023-05-07T12:51:39;16.00;48.70
9271;DHT22;4673;53.458;9.940;2023-05-07T12:54:04;16.00;48.60
9271;DHT22;4673;53.458;9.940;2023-05-07T12:56:36;15.90;48.50
9271;DHT22;4673;53.458;9.940;2023-05-07T12:59:02;16.00;48.30
9271;DHT22;4673;53.458;9.940;2023-05-07T13:01:31;16.10;49.10
9271;DHT22;4673;53.458;9.940;2023-05-07T13:04:05;16.20;47.80
9271;DHT22;4673;53.458;9.940;2023-05-07T13:06:31;16.60;48.50
9271;DHT22;4673;53.458;9.940;2023-05-07T13:08:57;16.90;46.20
9271;DHT22;4673;53.458;9.940;2023-05-07T13:11:23;16.90;46.50
9271;DHT22;4673;53.458;9.940;2023-05-07T13:13:48;16.70;46.20
9271;DHT22;4673;53.458;9.940;2023-05-07T13:16:17;16.70;45.80
9271;DHT22;4673;53.458;9.940;2023-05-07T13:18:43;16.70;45.30
9271;DHT22;4673;53.458;9.940;2023-05-07T13:21:11;16.70;45.10
9271;DHT22;4673;53.458;9.940;2023-05-07T13:23:38;17.00;46.00
9271;DHT22;4673;53.458;9.940;2023-05-07T13:26:04;16.70;45.40
9271;DHT22;4673;53.458;9.940;2023-05-07T13:28:29;16.60;45.90
9271;DHT22;4673;53.458;9.940;2023-05-07T13:30:55;16.60;45.70
9271;DHT22;4673;53.458;9.940;2023-05-07T13:33:24;16.50;46.20
9271;DHT22;4673;53.458;9.940;2023-05-07T13:35:49;16.60;45.80
9271;DHT22;4673;53.458;9.940;2023-05-07T13:38:15;16.70;46.00
9271;DHT22;4673;53.458;9.940;2023-05-07T13:40:44;16.80;46.10
9271;DHT22;4673;53.458;9.940;2023-05-07T13:43:17;16.90;44.10
9271;DHT22;4673;53.458;9.940;2023-05-07T13:45:44;16.90;43.70
9271;DHT22;4673;53.458;9.940;2023-05-07T13:48:09;16.70;43.00
9271;DHT22;4673;53.458;9.940;2023-05-07T13:50:38;16.50;44.20
9271;DHT22;4673;53.458;9.940;2023-05-07T13:53:03;16.50;44.40
9271;DHT22;4673;53.458;9.940;2023-05-07T13:55:29;16.30;45.00
9271;DHT22;4673;53.458;9.940;2023-05-07T13:57:59;16.30;46.10
9271;DHT22;4673;53.458;9.940;2023-05-07T14:00:30;16.20;45.80
9271;DHT22;4673;53.458;9.940;2023-05-07T14:02:56;16.30;46.10
9271;DHT22;4673;53.458;9.940;2023-05-07T14:05:25;16.30;46.20
9271;DHT22;4673;53.458;9.940;2023-05-07T14:07:59;16.50;44.90
9271;DHT22;4673;53.458;9.940;2023-05-07T14:10:28;16.40;44.10
9271;DHT22;4673;53.458;9.940;2023-05-07T14:12:54;16.30;44.20
9271;DHT22;4673;53.458;9.940;2023-05-07T14:15:22;16.30;44.20
9271;DHT22;4673;53.458;9.940;2023-05-07T14:17:51;16.10;44.60
9271;DHT22;4673;53.458;9.940;2023-05-07T14:20:17;16.00;44.90
9271;DHT22;4673;53.458;9.940;2023-05-07T14:22:42;16.00;45.70
9271;DHT22;4673;53.458;9.940;2023-05-07T14:25:08;16.00;46.20
9271;DHT22;4673;53.458;9.940;2023-05-07T14:27:35;16.00;45.90
9271;DHT22;4673;53.458;9.940;2023-05-07T14:30:00;15.90;45.60
9271;DHT22;4673;53.458;9.940;2023-05-07T14:32:26;15.80;45.90
9271;DHT22;4673;53.458;9.940;2023-05-07T14:34:51;15.60;45.90
9271;DHT22;4673;53.458;9.940;2023-05-07T14:37:17;15.60;47.00
9271;DHT22;4673;53.458;9.940;2023-05-07T14:39:45;15.50;47.10
9271;DHT22;4673;53.458;9.940;2023-05-07T14:42:10;15.40;47.30
9271;DHT22;4673;53.458;9.940;2023-05-07T14:44:37;15.40;47.80
9271;DHT22;4673;53.458;9.940;2023-05-07T14:47:05;15.40;47.70
9271;DHT22;4673;53.458;9.940;2023-05-07T14:49:31;15.40;47.50
9271;DHT22;4673;53.458;9.940;2023-05-07T14:51:57;15.40;47.10
9271;DHT22;4673;53.458;9.940;2023-05-07T14:54:25;15.40;47.30
9271;DHT22;4673;53.458;9.940;2023-05-07T14:56:51;15.30;48.00
9271;DHT22;4673;53.458;9.940;2023-05-07T14:59:16;15.40;48.00
9271;DHT22;4673;53.458;9.940;2023-05-07T15:01:46;15.40;48.30
9271;DHT22;4673;53.458;9.940;2023-05-07T15:04:12;15.30;48.40
9271;DHT22;4673;53.458;9.940;2023-05-07T15:06:38;15.30;48.90
9271;DHT22;4673;53.458;9.940;2023-05-07T15:09:04;15.40;49.10
9271;DHT22;4673;53.458;9.940;2023-05-07T15:11:29;15.50;49.00
9271;DHT22;4673;53.458;9.940;2023-05-07T15:13:55;15.50;48.60
9271;DHT22;4673;53.458;9.940;2023-05-07T15:16:21;15.50;48.10
9271;DHT22;4673;53.458;9.940;2023-05-07T15:18:47;15.60;47.10
9271;DHT22;4673;53.458;9.940;2023-05-07T15:21:13;15.70;47.40
9271;DHT22;4673;53.458;9.940;2023-05-07T15:23:38;15.80;47.20
9271;DHT22;4673;53.458;9.940;2023-05-07T15:26:06;15.90;47.00
9271;DHT22;4673;53.458;9.940;2023-05-07T15:28:33;15.90;46.30
9271;DHT22;4673;53.458;9.940;2023-05-07T15:30:58;16.00;46.00
9271;DHT22;4673;53.458;9.940;2023-05-07T15:33:24;16.10;46.20
9271;DHT22;4673;53.458;9.940;2023-05-07T15:35:50;16.10;45.40
9271;DHT22;4673;53.458;9.940;2023-05-07T15:38:15;16.20;45.30
9271;DHT22;4673;53.458;9.940;2023-05-07T15:40:42;16.10;44.70
9271;DHT22;4673;53.458;9.940;2023-05-07T15:43:09;16.10;45.00
9271;DHT22;4673;53.458;9.940;2023-05-07T15:45:41;16.20;45.10
9271;DHT22;4673;53.458;9.940;2023-05-07T15:48:08;16.30;44.00
9271;DHT22;4673;53.458;9.940;2023-05-07T15:50:34;16.40;43.90
9271;DHT22;4673;53.458;9.940;2023-05-07T15:53:00;16.40;43.00
9271;DHT22;4673;53.458;9.940;2023-05-07T15:55:26;16.50;43.00
9271;DHT22;4673;53.458;9.940;2023-05-07T15:57:52;16.40;42.70
9271;DHT22;4673;53.458;9.940;2023-05-07T16:00:20;16.30;42.80
9271;DHT22;4673;53.458;9.940;2023-05-07T16:02:45;16.30;43.10
9271;DHT22;4673;53.458;9.940;2023-05-07T16:05:11;16.30;43.80
9271;DHT22;4673;53.458;9.940;2023-05-07T16:07:38;16.30;43.30
9271;DHT22;4673;53.458;9.940;2023-05-07T16:10:04;16.40;43.60
9271;DHT22;4673;53.458;9.940;2023-05-07T16:12:30;16.40;43.40
9271;DHT22;4673;53.458;9.940;2023-05-07T16:14:56;16.50;43.90
9271;DHT22;4673;53.458;9.940;2023-05-07T16:17:21;16.60;43.80